Time;durP1;ratioP1;P1;durP2;ratioP2;P2;SDS_P1;SDS_P2;PMS_P1;PMS_P2;Temp;Humidity;BMP_temperature;BMP_pressure;BME280_temperature;BME280_humidity;BME280_pressure;Samples;Min_cycle;Max_cycle;Signal;HPM_P1;HPM_P2
2023/05/25 00:00:07;;;;;;;4.50;3.00;;;;;;;;;;4998166;28;20050;-61
2023/05/25 00:02:32;;;;;;;4.22;3.40;;;;;;;;;;5002240;28;20030;-64
2023/05/25 00:04:59;;;;;;;4.53;3.33;;;;;;;;;;5002504;28;20404;-59
2023/05/25 00:07:25;;;;;;;3.90;3.10;;;;;;;;;;5008713;28;20038;-64
2023/05/25 00:09:50;;;;;;;4.63;3.13;;;;;;;;;;4996629;28;20034;-65
2023/05/25 00:12:15;;;;;;;5.30;3.50;;;;;;;;;;5000681;28;20369;-61
2023/05/25 00:14:41;;;;;;;4.87;3.40;;;;;;;;;;5003762;28;20036;-59
2023/05/25 00:17:08;;;;;;;4.15;3.30;;;;;;;;;;5000867;28;20281;-61
2023/05/25 00:19:34;;;;;;;4.30;3.13;;;;;;;;;;5006325;28;20031;-63
2023/05/25 00:22:01;;;;;;;3.90;3.05;;;;;;;;;;5002736;28;20036;-63
2023/05/25 00:24:27;;;;;;;4.30;3.30;;;;;;;;;;5004991;28;20297;-65
2023/05/25 00:26:52;;;;;;;4.20;2.88;;;;;;;;;;5026223;28;20025;-64
2023/05/25 00:29:17;;;;;;;4.67;3.30;;;;;;;;;;4999712;28;20061;-63
2023/05/25 00:31:42;;;;;;;3.50;2.90;;;;;;;;;;4999680;28;20033;-62
2023/05/25 00:34:08;;;;;;;4.43;2.93;;;;;;;;;;4994128;28;20284;-64
2023/05/25 00:36:33;;;;;;;4.57;2.93;;;;;;;;;;5004778;28;20029;-63
2023/05/25 00:38:58;;;;;;;4.70;2.90;;;;;;;;;;5003153;28;20109;-63
2023/05/25 00:41:23;;;;;;;3.72;3.03;;;;;;;;;;5003265;28;20057;-62
2023/05/25 00:43:48;;;;;;;4.30;3.17;;;;;;;;;;4997881;28;20062;-62
2023/05/25 00:46:14;;;;;;;3.73;2.70;;;;;;;;;;5016561;28;20034;-63
2023/05/25 00:48:40;;;;;;;4.65;3.15;;;;;;;;;;5006763;28;20352;-64
2023/05/25 00:51:05;;;;;;;3.85;2.92;;;;;;;;;;5009575;28;20048;-65
2023/05/25 00:53:32;;;;;;;4.30;3.33;;;;;;;;;;5000177;28;20424;-61
2023/05/25 00:56:16;;;;;;;4.15;3.20;;;;;;;;;;5000723;28;20069;-61
2023/05/25 00:58:41;;;;;;;4.28;3.15;;;;;;;;;;5001516;28;20025;-65
2023/05/25 01:01:10;;;;;;;3.40;2.77;;;;;;;;;;4999166;28;20435;-61
2023/05/25 01:03:36;;;;;;;4.40;3.00;;;;;;;;;;5015194;28;20416;-59
2023/05/25 01:06:02;;;;;;;3.33;2.75;;;;;;;;;;5002045;28;20104;-63
2023/05/25 01:08:27;;;;;;;3.88;2.75;;;;;;;;;;5008769;28;20508;-61
2023/05/25 01:10:53;;;;;;;4.60;2.97;;;;;;;;;;5018431;28;20029;-62
2023/05/25 01:13:18;;;;;;;4.60;2.90;;;;;;;;;;5009568;28;20042;-64
2023/05/25 01:15:44;;;;;;;5.25;3.20;;;;;;;;;;4999164;28;20088;-63
2023/05/25 01:18:13;;;;;;;4.10;2.90;;;;;;;;;;5003493;28;20124;-65
2023/05/25 01:20:48;;;;;;;4.10;2.92;;;;;;;;;;4998293;28;20449;-64
2023/05/25 01:23:14;;;;;;;3.50;2.83;;;;;;;;;;5008733;28;20069;-64
2023/05/25 01:25:43;;;;;;;4.10;2.70;;;;;;;;;;5014621;28;20049;-65
2023/05/25 01:28:10;;;;;;;3.78;3.00;;;;;;;;;;5004453;28;20860;-62
2023/05/25 01:30:35;;;;;;;4.13;2.72;;;;;;;;;;4998899;28;20431;-64
2023/05/25 01:33:00;;;;;;;3.72;3.28;;;;;;;;;;4994085;28;20042;-60
2023/05/25 01:35:26;;;;;;;3.90;3.00;;;;;;;;;;4992160;28;20064;-61
2023/05/25 01:37:51;;;;;;;3.67;2.90;;;;;;;;;;4992320;28;20088;-64
2023/05/25 01:40:16;;;;;;;3.97;2.83;;;;;;;;;;5006395;28;20293;-59
2023/05/25 01:42:42;;;;;;;4.72;3.13;;;;;;;;;;4995888;28;20054;-60
2023/05/25 01:45:07;;;;;;;5.37;3.30;;;;;;;;;;5002315;28;20042;-64
2023/05/25 01:47:43;;;;;;;3.83;3.10;;;;;;;;;;5007876;28;20038;-63
2023/05/25 01:50:15;;;;;;;3.55;3.10;;;;;;;;;;4991817;28;20504;-63
2023/05/25 01:52:40;;;;;;;5.07;3.20;;;;;;;;;;4988838;28;20133;-64
2023/05/25 01:55:07;;;;;;;3.78;2.90;;;;;;;;;;5003394;28;20167;-63
2023/05/25 01:57:33;;;;;;;4.07;2.88;;;;;;;;;;4997439;28;20141;-62
2023/05/25 02:00:01;;;;;;;3.83;2.80;;;;;;;;;;5001724;28;20401;-65
2023/05/25 02:02:26;;;;;;;3.60;3.00;;;;;;;;;;4987652;28;20038;-62
2023/05/25 02:04:52;;;;;;;3.93;3.10;;;;;;;;;;4999457;28;20038;-64
2023/05/25 02:07:17;;;;;;;4.10;2.70;;;;;;;;;;4988738;28;20041;-63
2023/05/25 02:09:42;;;;;;;4.30;3.13;;;;;;;;;;4996734;28;20062;-63
2023/05/25 02:12:08;;;;;;;3.70;3.00;;;;;;;;;;4994484;28;20048;-63
2023/05/25 02:14:33;;;;;;;4.47;3.10;;;;;;;;;;5004183;28;20062;-65
2023/05/25 02:17:00;;;;;;;4.40;2.63;;;;;;;;;;4988254;28;20465;-64
2023/05/25 02:19:26;;;;;;;3.83;2.92;;;;;;;;;;4993938;28;20054;-62
2023/05/25 02:21:51;;;;;;;4.03;3.03;;;;;;;;;;4988168;28;20042;-64
2023/05/25 02:24:17;;;;;;;3.57;2.70;;;;;;;;;;4998730;28;20054;-60
2023/05/25 02:26:42;;;;;;;4.30;2.90;;;;;;;;;;4992524;28;20285;-65
2023/05/25 02:29:07;;;;;;;4.23;2.90;;;;;;;;;;5004199;28;20057;-64
2023/05/25 02:31:32;;;;;;;3.10;2.50;;;;;;;;;;4995710;28;20423;-62
2023/05/25 02:33:58;;;;;;;3.20;2.63;;;;;;;;;;4996039;28;20048;-63
2023/05/25 02:36:23;;;;;;;4.03;2.67;;;;;;;;;;4987863;28;20282;-65
2023/05/25 02:38:50;;;;;;;3.83;3.03;;;;;;;;;;4987147;28;20043;-64
2023/05/25 02:41:16;;;;;;;3.85;2.80;;;;;;;;;;4993737;28;20288;-60
2023/05/25 02:43:41;;;;;;;3.77;2.80;;;;;;;;;;5000997;28;20076;-63
2023/05/25 02:46:06;;;;;;;4.23;2.80;;;;;;;;;;4998456;28;20281;-64
2023/05/25 02:48:31;;;;;;;3.50;2.63;;;;;;;;;;5000073;28;20292;-64
2023/05/25 02:50:57;;;;;;;4.32;2.92;;;;;;;;;;4993504;28;20038;-65
2023/05/25 02:53:22;;;;;;;3.33;2.60;;;;;;;;;;4994057;28;20080;-64
2023/05/25 02:55:47;;;;;;;4.13;3.17;;;;;;;;;;4998555;28;20031;-65
2023/05/25 02:58:12;;;;;;;2.90;2.30;;;;;;;;;;4991813;28;20029;-65
2023/05/25 03:00:38;;;;;;;3.57;2.87;;;;;;;;;;4995750;28;21105;-64
2023/05/25 03:03:03;;;;;;;3.75;2.80;;;;;;;;;;4989295;28;20128;-65
2023/05/25 03:05:28;;;;;;;3.65;2.88;;;;;;;;;;4993366;28;20066;-64
2023/05/25 03:07:54;;;;;;;3.40;2.80;;;;;;;;;;4987259;28;20045;-62
2023/05/25 03:10:19;;;;;;;4.00;3.05;;;;;;;;;;4992216;28;20058;-64
2023/05/25 03:12:44;;;;;;;3.22;2.65;;;;;;;;;;4987818;28;20054;-64
2023/05/25 03:15:12;;;;;;;3.17;2.57;;;;;;;;;;4991014;28;20521;-63
2023/05/25 03:17:37;;;;;;;3.75;2.85;;;;;;;;;;4987292;28;20274;-64
2023/05/25 03:20:03;;;;;;;3.60;2.63;;;;;;;;;;4988579;28;20034;-65
2023/05/25 03:22:28;;;;;;;3.58;2.92;;;;;;;;;;5004288;28;20100;-63
2023/05/25 03:24:53;;;;;;;4.67;3.00;;;;;;;;;;4997542;28;20046;-63
2023/05/25 03:27:18;;;;;;;3.67;2.90;;;;;;;;;;4994060;28;20633;-65
2023/05/25 03:29:44;;;;;;;3.40;2.75;;;;;;;;;;5004881;28;20344;-65
2023/05/25 03:32:09;;;;;;;2.80;2.40;;;;;;;;;;4991890;28;20508;-62
2023/05/25 03:34:36;;;;;;;4.40;2.80;;;;;;;;;;5001436;28;20036;-64
2023/05/25 03:37:01;;;;;;;3.08;2.63;;;;;;;;;;4999858;28;20389;-63
2023/05/25 03:39:26;;;;;;;3.40;2.58;;;;;;;;;;4990741;28;20078;-64
2023/05/25 03:41:51;;;;;;;3.30;2.80;;;;;;;;;;4997007;28;20171;-65
2023/05/25 03:44:17;;;;;;;3.83;3.08;;;;;;;;;;4997624;28;20124;-61
2023/05/25 03:46:42;;;;;;;3.60;2.60;;;;;;;;;;4992290;28;20073;-63
2023/05/25 03:49:12;;;;;;;3.77;2.63;;;;;;;;;;4987760;28;20260;-65
2023/05/25 03:51:37;;;;;;;;;;;;;;;;;;4992757;28;20034;-64
2023/05/25 03:54:02;;;;;;;3.47;2.70;;;;;;;;;;5016011;28;19906;-65
2023/05/25 03:56:28;;;;;;;3.55;2.80;;;;;;;;;;5000881;28;20022;-63
2023/05/25 03:58:53;;;;;;;3.17;2.57;;;;;;;;;;4987327;28;20034;-61
2023/05/25 04:01:18;;;;;;;4.00;2.78;;;;;;;;;;5000106;28;20030;-66
2023/05/25 04:03:44;;;;;;;3.70;2.67;;;;;;;;;;4995787;28;20639;-63
2023/05/25 04:06:10;;;;;;;4.17;2.80;;;;;;;;;;4990854;28;20029;-67
2023/05/25 04:08:35;;;;;;;3.42;2.80;;;;;;;;;;4986963;28;20261;-64
2023/05/25 04:11:01;;;;;;;5.63;3.30;;;;;;;;;;4996197;28;20489;-59
2023/05/25 04:13:26;;;;;;;4.35;3.40;;;;;;;;;;4990758;28;20234;-57
2023/05/25 04:15:51;;;;;;;4.68;3.33;;;;;;;;;;4989967;28;20119;-62
2023/05/25 04:18:17;;;;;;;6.65;3.15;;;;;;;;;;5007131;28;20022;-63
2023/05/25 04:20:44;;;;;;;5.28;3.03;;;;;;;;;;5006180;28;20425;-66
2023/05/25 04:23:09;;;;;;;5.03;3.10;;;;;;;;;;4990375;28;20461;-58
2023/05/25 04:25:36;;;;;;;4.68;3.30;;;;;;;;;;4991381;28;20129;-62
2023/05/25 04:28:01;;;;;;;8.75;3.30;;;;;;;;;;4991095;28;20030;-65
2023/05/25 04:30:27;;;;;;;5.88;3.15;;;;;;;;;;4989962;28;20494;-63
2023/05/25 04:32:53;;;;;;;4.82;3.25;;;;;;;;;;4994213;28;20033;-63
2023/05/25 04:35:19;;;;;;;4.68;3.30;;;;;;;;;;4989993;28;20732;-63
2023/05/25 04:37:45;;;;;;;5.50;2.97;;;;;;;;;;4991452;28;20018;-61
2023/05/25 04:40:12;;;;;;;5.88;3.67;;;;;;;;;;4987180;28;20339;-61
2023/05/25 04:42:38;;;;;;;6.10;3.40;;;;;;;;;;5004518;28;20503;-60
2023/05/25 04:45:04;;;;;;;5.85;3.30;;;;;;;;;;4990679;28;20481;-63
2023/05/25 04:47:29;;;;;;;5.07;3.10;;;;;;;;;;4990030;28;20133;-64
2023/05/25 04:49:55;;;;;;;4.15;2.90;;;;;;;;;;4990613;28;21228;-62
2023/05/25 04:52:20;;;;;;;5.37;3.40;;;;;;;;;;4989809;28;20038;-63
2023/05/25 04:54:45;;;;;;;6.30;3.40;;;;;;;;;;4990058;28;20289;-64
2023/05/25 04:57:10;;;;;;;6.82;3.25;;;;;;;;;;4993349;28;20817;-59
2023/05/25 04:59:36;;;;;;;4.15;2.95;;;;;;;;;;4992817;28;20267;-62
2023/05/25 05:02:01;;;;;;;7.23;3.30;;;;;;;;;;4992946;28;20041;-63
2023/05/25 05:04:26;;;;;;;5.03;3.38;;;;;;;;;;4993731;28;20056;-65
2023/05/25 05:06:51;;;;;;;6.60;3.30;;;;;;;;;;5003225;28;20461;-65
2023/05/25 05:09:17;;;;;;;5.73;2.93;;;;;;;;;;5006925;28;20483;-60
2023/05/25 05:11:42;;;;;;;3.93;2.97;;;;;;;;;;4995629;28;20424;-60
2023/05/25 05:14:07;;;;;;;7.57;3.15;;;;;;;;;;4995815;28;20301;-63
2023/05/25 05:16:33;;;;;;;5.17;3.07;;;;;;;;;;4996719;28;20172;-62
2023/05/25 05:19:00;;;;;;;6.03;3.17;;;;;;;;;;4992757;28;20408;-59
2023/05/25 05:21:25;;;;;;;4.68;3.10;;;;;;;;;;4993667;28;20062;-62
2023/05/25 05:23:50;;;;;;;5.23;2.90;;;;;;;;;;4992997;28;20538;-61
2023/05/25 05:26:16;;;;;;;4.32;3.28;;;;;;;;;;4993734;28;20308;-59
2023/05/25 05:28:41;;;;;;;5.43;3.28;;;;;;;;;;4992598;28;20033;-58
2023/05/25 05:31:06;;;;;;;4.50;3.60;;;;;;;;;;4991407;28;20046;-59
2023/05/25 05:33:32;;;;;;;7.75;4.35;;;;;;;;;;4992158;28;20648;-58
2023/05/25 05:35:57;;;;;;;9.17;5.50;;;;;;;;;;4991801;28;20045;-59
2023/05/25 05:38:23;;;;;;;10.10;6.10;;;;;;;;;;4993927;28;20299;-59
2023/05/25 05:40:48;;;;;;;11.85;7.20;;;;;;;;;;4993585;28;20081;-58
2023/05/25 05:43:13;;;;;;;9.37;6.37;;;;;;;;;;4992962;28;20050;-59
2023/05/25 05:45:39;;;;;;;13.27;7.47;;;;;;;;;;4993493;28;20376;-57
2023/05/25 05:48:08;;;;;;;12.82;7.25;;;;;;;;;;4992513;28;20327;-59
2023/05/25 05:50:33;;;;;;;13.70;7.77;;;;;;;;;;5007732;28;20466;-57
2023/05/25 05:52:58;;;;;;;11.00;7.10;;;;;;;;;;4995922;28;20295;-62
2023/05/25 05:55:24;;;;;;;9.50;7.20;;;;;;;;;;4992677;28;20942;-59
2023/05/25 05:57:49;;;;;;;12.63;7.33;;;;;;;;;;4991110;28;20587;-59
2023/05/25 06:00:15;;;;;;;10.55;7.07;;;;;;;;;;4993795;28;20582;-61
2023/05/25 06:02:40;;;;;;;12.73;7.93;;;;;;;;;;4992044;28;20057;-61
2023/05/25 06:05:06;;;;;;;10.20;7.53;;;;;;;;;;4994495;28;20054;-60
2023/05/25 06:07:33;;;;;;;11.82;7.47;;;;;;;;;;5004603;28;20034;-60
2023/05/25 06:09:59;;;;;;;10.73;7.80;;;;;;;;;;4993287;28;20477;-60
2023/05/25 06:12:24;;;;;;;11.40;7.57;;;;;;;;;;5006932;28;20065;-61
2023/05/25 06:14:50;;;;;;;11.50;7.70;;;;;;;;;;4992647;28;20821;-63
2023/05/25 06:17:16;;;;;;;10.73;7.50;;;;;;;;;;5006845;28;20621;-59
2023/05/25 06:19:41;;;;;;;9.73;7.50;;;;;;;;;;4993072;28;20088;-60
2023/05/25 06:22:06;;;;;;;12.93;7.67;;;;;;;;;;4991181;28;20360;-60
2023/05/25 06:24:32;;;;;;;10.55;7.55;;;;;;;;;;5007257;28;20111;-62
2023/05/25 06:26:57;;;;;;;12.43;7.72;;;;;;;;;;5007433;28;20607;-58
2023/05/25 06:29:22;;;;;;;13.43;7.37;;;;;;;;;;4989605;28;20136;-61
2023/05/25 06:31:47;;;;;;;10.07;6.90;;;;;;;;;;4989342;28;20144;-60
2023/05/25 06:34:13;;;;;;;11.32;7.20;;;;;;;;;;4993267;28;20289;-62
2023/05/25 06:36:38;;;;;;;10.43;6.80;;;;;;;;;;4992058;28;20391;-59
2023/05/25 06:39:03;;;;;;;9.23;6.90;;;;;;;;;;4990505;28;20050;-63
2023/05/25 06:41:29;;;;;;;8.20;5.57;;;;;;;;;;4993003;28;20312;-61
2023/05/25 06:43:54;;;;;;;11.43;5.43;;;;;;;;;;4992307;28;20053;-62
2023/05/25 06:46:20;;;;;;;8.38;5.78;;;;;;;;;;5002210;28;20042;-60
2023/05/25 06:48:46;;;;;;;10.35;5.05;;;;;;;;;;4993996;28;20034;-60
2023/05/25 06:51:11;;;;;;;7.95;5.63;;;;;;;;;;5008034;28;20041;-60
2023/05/25 06:53:37;;;;;;;9.33;5.23;;;;;;;;;;4992059;28;20162;-61
2023/05/25 06:56:02;;;;;;;7.28;4.97;;;;;;;;;;4993274;28;20288;-60
2023/05/25 06:58:27;;;;;;;9.70;5.32;;;;;;;;;;4991524;28;20464;-62
2023/05/25 07:00:53;;;;;;;7.93;5.17;;;;;;;;;;4991730;28;20045;-62
2023/05/25 07:03:18;;;;;;;9.60;5.70;;;;;;;;;;4990198;28;20062;-61
2023/05/25 07:05:43;;;;;;;7.70;5.20;;;;;;;;;;4991938;28;20022;-58
2023/05/25 07:08:09;;;;;;;6.60;5.23;;;;;;;;;;4992405;28;20050;-62
2023/05/25 07:10:34;;;;;;;7.85;5.13;;;;;;;;;;4992404;28;20304;-60
2023/05/25 07:12:59;;;;;;;7.05;5.00;;;;;;;;;;4991554;28;21605;-60
2023/05/25 07:15:24;;;;;;;6.93;4.87;;;;;;;;;;4991079;28;20038;-59
2023/05/25 07:17:50;;;;;;;6.97;4.70;;;;;;;;;;4991249;28;20033;-63
2023/05/25 07:20:15;;;;;;;7.13;4.20;;;;;;;;;;4991258;28;20046;-59
2023/05/25 07:22:41;;;;;;;7.57;4.53;;;;;;;;;;4991161;28;20939;-64
2023/05/25 07:25:06;;;;;;;6.95;4.60;;;;;;;;;;5007122;28;20038;-60
2023/05/25 07:27:32;;;;;;;6.95;4.65;;;;;;;;;;4989328;28;20456;-61
2023/05/25 07:29:57;;;;;;;7.95;4.80;;;;;;;;;;4989088;28;20030;-63
2023/05/25 07:32:23;;;;;;;8.07;4.43;;;;;;;;;;4990350;28;20046;-62
2023/05/25 07:34:48;;;;;;;7.28;4.25;;;;;;;;;;5000542;28;20046;-60
2023/05/25 07:37:13;;;;;;;7.03;4.17;;;;;;;;;;4991024;28;20034;-61
2023/05/25 07:39:39;;;;;;;6.57;4.77;;;;;;;;;;4987618;28;20281;-61
2023/05/25 07:42:04;;;;;;;7.47;4.60;;;;;;;;;;4990207;28;20407;-62
2023/05/25 07:44:30;;;;;;;6.10;4.30;;;;;;;;;;4988823;28;20491;-64
2023/05/25 07:46:55;;;;;;;5.50;4.38;;;;;;;;;;4991775;28;20065;-59
2023/05/25 07:49:20;;;;;;;5.53;4.00;;;;;;;;;;4990795;28;20364;-63
2023/05/25 07:51:45;;;;;;;9.03;4.17;;;;;;;;;;4989944;28;20049;-62
2023/05/25 07:54:11;;;;;;;5.70;4.10;;;;;;;;;;4992003;28;20512;-61
2023/05/25 07:56:36;;;;;;;5.23;3.80;;;;;;;;;;5005622;28;20297;-61
2023/05/25 07:59:01;;;;;;;4.78;3.50;;;;;;;;;;5005363;28;20312;-64
2023/05/25 08:01:27;;;;;;;5.78;3.75;;;;;;;;;;4990519;28;20046;-64
2023/05/25 08:03:53;;;;;;;6.57;3.95;;;;;;;;;;4990707;28;20050;-65
2023/05/25 08:06:18;;;;;;;5.07;3.83;;;;;;;;;;4990883;28;20022;-62
2023/05/25 08:08:43;;;;;;;5.68;3.40;;;;;;;;;;5004140;28;20032;-63
2023/05/25 08:11:09;;;;;;;7.53;4.22;;;;;;;;;;4991533;28;20037;-67
2023/05/25 08:13:34;;;;;;;5.22;3.45;;;;;;;;;;4990138;28;20050;-63
2023/05/25 08:16:00;;;;;;;4.50;4.07;;;;;;;;;;4991571;28;20049;-64
2023/05/25 08:18:25;;;;;;;4.63;3.60;;;;;;;;;;4991664;28;20916;-62
2023/05/25 08:20:50;;;;;;;5.17;3.50;;;;;;;;;;4990962;28;20760;-61
2023/05/25 08:23:16;;;;;;;6.85;4.10;;;;;;;;;;4991896;28;20322;-65
2023/05/25 08:25:42;;;;;;;5.60;3.72;;;;;;;;;;4988698;28;20118;-64
2023/05/25 08:28:07;;;;;;;4.40;3.20;;;;;;;;;;4991566;28;20129;-61
2023/05/25 08:30:32;;;;;;;5.53;4.00;;;;;;;;;;4990245;28;20134;-61
2023/05/25 08:32:57;;;;;;;5.60;3.92;;;;;;;;;;4992009;28;20300;-62
2023/05/25 08:35:23;;;;;;;4.53;3.20;;;;;;;;;;4996054;28;20066;-65
2023/05/25 08:37:48;;;;;;;6.55;4.10;;;;;;;;;;4985230;28;20026;-64
2023/05/25 08:40:15;;;;;;;6.70;4.03;;;;;;;;;;4987041;28;20488;-64
2023/05/25 08:42:41;;;;;;;5.38;3.50;;;;;;;;;;4997525;28;20297;-62
2023/05/25 08:45:07;;;;;;;6.53;3.67;;;;;;;;;;4988515;28;20046;-60
2023/05/25 08:47:33;;;;;;;5.47;4.03;;;;;;;;;;4987474;28;20034;-64
2023/05/25 08:49:58;;;;;;;6.00;4.00;;;;;;;;;;4999210;28;20411;-62
2023/05/25 08:52:23;;;;;;;6.25;3.65;;;;;;;;;;4985656;28;20341;-64
2023/05/25 08:54:50;;;;;;;5.03;3.70;;;;;;;;;;4994249;28;20120;-65
2023/05/25 08:57:53;;;;;;;5.72;3.45;;;;;;;;;;4997785;28;20041;-65
2023/05/25 09:00:19;;;;;;;5.30;3.75;;;;;;;;;;4961286;28;20030;-65
2023/05/25 09:02:56;;;;;;;4.63;3.20;;;;;;;;;;4952880;28;20027;-65
2023/05/25 09:05:22;;;;;;;4.47;3.65;;;;;;;;;;4984115;28;20068;-62
2023/05/25 09:07:47;;;;;;;4.93;3.33;;;;;;;;;;4992990;28;20523;-64
2023/05/25 09:10:13;;;;;;;7.53;3.43;;;;;;;;;;4991838;28;20038;-65
2023/05/25 09:12:38;;;;;;;4.43;3.13;;;;;;;;;;4989071;28;20379;-65
2023/05/25 09:15:04;;;;;;;4.93;3.20;;;;;;;;;;4994887;28;20125;-64
2023/05/25 09:17:29;;;;;;;3.90;3.30;;;;;;;;;;4994370;28;20164;-62
2023/05/25 09:19:54;;;;;;;4.20;3.27;;;;;;;;;;4997911;28;20442;-60
2023/05/25 09:22:20;;;;;;;5.05;2.90;;;;;;;;;;4983609;28;20445;-66
2023/05/25 09:24:45;;;;;;;4.80;2.90;;;;;;;;;;4988207;28;20050;-61
2023/05/25 09:27:10;;;;;;;3.75;3.08;;;;;;;;;;5007382;23;20058;-64
2023/05/25 09:29:36;;;;;;;3.90;2.95;;;;;;;;;;4969419;28;20049;-62
2023/05/25 09:32:03;;;;;;;4.73;3.10;;;;;;;;;;4982366;28;20034;-61
2023/05/25 09:34:30;;;;;;;4.25;3.05;;;;;;;;;;4982937;28;20116;-59
2023/05/25 09:36:55;;;;;;;4.32;3.28;;;;;;;;;;4969564;28;20035;-65
2023/05/25 09:39:21;;;;;;;3.87;2.93;;;;;;;;;;4981216;28;20080;-65
2023/05/25 09:41:46;;;;;;;4.22;3.10;;;;;;;;;;4968893;28;20340;-61
2023/05/25 09:44:11;;;;;;;3.83;2.80;;;;;;;;;;4967716;28;20748;-58
2023/05/25 09:46:37;;;;;;;4.87;2.60;;;;;;;;;;5017726;22;20753;-60
2023/05/25 09:49:07;;;;;;;5.15;2.88;;;;;;;;;;5000798;28;20044;-60
2023/05/25 09:51:32;;;;;;;4.57;2.90;;;;;;;;;;5004968;28;20046;-59
2023/05/25 09:54:03;;;;;;;4.63;2.95;;;;;;;;;;5006690;28;20042;-58
2023/05/25 09:56:30;;;;;;;3.38;2.70;;;;;;;;;;5005600;28;20324;-60
2023/05/25 09:58:55;;;;;;;5.22;3.17;;;;;;;;;;5004741;28;20200;-59
2023/05/25 10:01:20;;;;;;;4.82;3.15;;;;;;;;;;4996468;28;20137;-60
2023/05/25 10:03:47;;;;;;;4.10;2.80;;;;;;;;;;5006363;28;20128;-60
2023/05/25 10:06:13;;;;;;;4.00;3.05;;;;;;;;;;5002916;28;20284;-60
2023/05/25 10:08:38;;;;;;;4.78;2.92;;;;;;;;;;5005842;28;20411;-60
2023/05/25 10:11:03;;;;;;;4.13;3.07;;;;;;;;;;5007376;28;20108;-60
2023/05/25 10:13:29;;;;;;;5.40;3.43;;;;;;;;;;5007286;28;20762;-61
2023/05/25 10:15:54;;;;;;;4.88;3.47;;;;;;;;;;5006365;28;20460;-59
2023/05/25 10:18:24;;;;;;;5.47;3.20;;;;;;;;;;5005928;28;20026;-61
2023/05/25 10:20:49;;;;;;;;;;;;;;;;;;5022358;28;20112;-61
2023/05/25 10:23:15;;;;;;;4.40;3.00;;;;;;;;;;5020914;28;20119;-61
2023/05/25 10:25:44;;;;;;;4.32;3.00;;;;;;;;;;5007240;28;20140;-61
2023/05/25 10:28:25;;;;;;;5.68;3.42;;;;;;;;;;5005233;28;20022;-60
2023/05/25 10:30:50;;;;;;;4.53;3.08;;;;;;;;;;5004651;28;20068;-60
2023/05/25 10:33:16;;;;;;;4.73;3.07;;;;;;;;;;5006195;28;20062;-61
2023/05/25 10:35:42;;;;;;;3.97;2.83;;;;;;;;;;5005685;28;20802;-59
2023/05/25 10:38:07;;;;;;;4.70;3.40;;;;;;;;;;5002966;28;20217;-61
2023/05/25 10:40:33;;;;;;;4.07;2.80;;;;;;;;;;5018855;28;20042;-60
2023/05/25 10:42:58;;;;;;;4.70;2.80;;;;;;;;;;5005214;28;20273;-60
2023/05/25 10:45:24;;;;;;;4.77;3.50;;;;;;;;;;5005058;28;20053;-60
2023/05/25 10:47:49;;;;;;;4.67;3.40;;;;;;;;;;5007024;28;20030;-59
2023/05/25 10:50:23;;;;;;;4.22;3.00;;;;;;;;;;5006681;28;20672;-62
2023/05/25 10:53:08;;;;;;;5.72;3.35;;;;;;;;;;5005938;28;20039;-60
2023/05/25 10:55:51;;;;;;;4.35;2.70;;;;;;;;;;4994747;28;20037;-60
2023/05/25 10:58:17;;;;;;;5.63;3.15;;;;;;;;;;5005266;28;20046;-60
2023/05/25 11:00:43;;;;;;;4.88;2.90;;;;;;;;;;5009869;28;20518;-60
2023/05/25 11:03:08;;;;;;;4.85;3.20;;;;;;;;;;5000454;28;20113;-61
2023/05/25 11:05:37;;;;;;;4.03;2.50;;;;;;;;;;5016346;28;20125;-59
2023/05/25 11:08:11;;;;;;;4.72;3.10;;;;;;;;;;5006841;28;20140;-59
2023/05/25 11:10:39;;;;;;;4.88;2.85;;;;;;;;;;5007178;28;20301;-60
2023/05/25 11:13:23;;;;;;;3.67;2.80;;;;;;;;;;5005092;28;20474;-59
2023/05/25 11:16:29;;;;;;;4.72;2.50;;;;;;;;;;5006781;28;20081;-59
2023/05/25 11:18:56;;;;;;;4.53;2.95;;;;;;;;;;4991945;28;20073;-57
2023/05/25 11:21:25;;;;;;;4.70;2.90;;;;;;;;;;5002669;28;20122;-60
2023/05/25 11:24:05;;;;;;;4.10;2.88;;;;;;;;;;5004132;28;20045;-59
2023/05/25 11:26:34;;;;;;;3.50;2.70;;;;;;;;;;5003232;28;20034;-60
2023/05/25 11:28:59;;;;;;;4.10;2.97;;;;;;;;;;5006349;28;20026;-59
2023/05/25 11:31:29;;;;;;;4.72;2.90;;;;;;;;;;5002775;28;20123;-60
2023/05/25 11:33:59;;;;;;;4.90;3.25;;;;;;;;;;5006059;28;20026;-60
2023/05/25 11:36:25;;;;;;;4.55;2.90;;;;;;;;;;5006113;28;20124;-61
2023/05/25 11:38:51;;;;;;;4.00;2.97;;;;;;;;;;5005749;28;20109;-60
2023/05/25 11:41:17;;;;;;;5.07;3.20;;;;;;;;;;5002803;28;20049;-60
2023/05/25 11:43:43;;;;;;;4.75;2.80;;;;;;;;;;5004521;28;20041;-61
2023/05/25 11:46:09;;;;;;;3.92;2.80;;;;;;;;;;5013223;28;20049;-60
2023/05/25 11:48:35;;;;;;;7.03;3.20;;;;;;;;;;5003670;28;20117;-60
2023/05/25 11:51:04;;;;;;;5.43;3.10;;;;;;;;;;5005585;28;20102;-60
2023/05/25 11:53:29;;;;;;;4.53;3.20;;;;;;;;;;5006014;28;20037;-57
2023/05/25 11:55:55;;;;;;;5.32;2.80;;;;;;;;;;5005877;28;20720;-60
2023/05/25 11:58:20;;;;;;;6.23;3.57;;;;;;;;;;5005149;28;20088;-60
2023/05/25 12:00:45;;;;;;;5.03;2.97;;;;;;;;;;5001182;28;20203;-60
2023/05/25 12:03:27;;;;;;;5.07;2.80;;;;;;;;;;5003495;28;20496;-59
2023/05/25 12:05:52;;;;;;;7.45;3.33;;;;;;;;;;4996809;28;20046;-60
2023/05/25 12:08:30;;;;;;;3.40;2.53;;;;;;;;;;5003513;28;20408;-57
2023/05/25 12:10:55;;;;;;;3.63;2.67;;;;;;;;;;5004947;28;20164;-57
2023/05/25 12:13:21;;;;;;;4.65;2.75;;;;;;;;;;5005106;28;20109;-60
2023/05/25 12:15:46;;;;;;;5.40;2.88;;;;;;;;;;4999673;28;20492;-58
2023/05/25 12:18:11;;;;;;;3.60;2.67;;;;;;;;;;5004271;28;20172;-58
2023/05/25 12:20:39;;;;;;;4.57;2.50;;;;;;;;;;5003661;28;20124;-59
2023/05/25 12:23:04;;;;;;;3.85;2.58;;;;;;;;;;5000837;28;21211;-60
2023/05/25 12:25:29;;;;;;;3.60;2.40;;;;;;;;;;5004512;28;20065;-58
2023/05/25 12:28:11;;;;;;;3.75;2.67;;;;;;;;;;4996204;28;20144;-62
2023/05/25 12:30:36;;;;;;;3.38;2.47;;;;;;;;;;4994132;28;20038;-61
2023/05/25 12:33:01;;;;;;;3.78;2.53;;;;;;;;;;5003727;28;20097;-60
2023/05/25 12:35:28;;;;;;;3.55;2.25;;;;;;;;;;5003146;28;20050;-61
2023/05/25 12:38:14;;;;;;;3.80;2.17;;;;;;;;;;5012773;28;20039;-61
2023/05/25 12:40:39;;;;;;;3.55;2.58;;;;;;;;;;4998791;28;20030;-61
2023/05/25 12:43:05;;;;;;;2.72;2.20;;;;;;;;;;5011503;28;20479;-62
2023/05/25 12:45:30;;;;;;;4.18;2.55;;;;;;;;;;5002316;28;20502;-62
2023/05/25 12:47:55;;;;;;;3.47;2.30;;;;;;;;;;5018880;28;20591;-59
2023/05/25 12:50:21;;;;;;;2.80;2.15;;;;;;;;;;5004046;28;20104;-61
2023/05/25 12:52:46;;;;;;;2.97;2.22;;;;;;;;;;5001698;28;20069;-60
2023/05/25 12:55:21;;;;;;;3.23;2.50;;;;;;;;;;5003816;28;20052;-61
2023/05/25 12:57:51;;;;;;;3.63;2.22;;;;;;;;;;4995945;28;21115;-60
2023/05/25 13:00:16;;;;;;;3.38;2.15;;;;;;;;;;4999818;28;20736;-60
2023/05/25 13:02:42;;;;;;;3.67;2.50;;;;;;;;;;5002921;28;20022;-58
2023/05/25 13:05:16;;;;;;;3.50;2.42;;;;;;;;;;5014531;28;20034;-60
2023/05/25 13:07:41;;;;;;;2.95;2.30;;;;;;;;;;4998068;28;20046;-60
2023/05/25 13:10:06;;;;;;;3.30;2.30;;;;;;;;;;5000139;28;20069;-60
2023/05/25 13:12:31;;;;;;;3.20;2.13;;;;;;;;;;4990730;28;20034;-61
2023/05/25 13:14:57;;;;;;;2.77;2.03;;;;;;;;;;5000939;28;20033;-61
2023/05/25 13:17:22;;;;;;;3.30;2.10;;;;;;;;;;5004365;28;20498;-61
2023/05/25 13:19:47;;;;;;;3.30;2.07;;;;;;;;;;5003234;28;20090;-58
2023/05/25 13:22:12;;;;;;;3.63;2.10;;;;;;;;;;5000726;28;20727;-60
2023/05/25 13:24:38;;;;;;;2.78;1.92;;;;;;;;;;5006857;28;20123;-60
2023/05/25 13:27:03;;;;;;;3.10;2.10;;;;;;;;;;5005671;28;20061;-60
2023/05/25 13:29:28;;;;;;;3.47;2.10;;;;;;;;;;5004778;28;20042;-60
2023/05/25 13:31:54;;;;;;;2.93;2.13;;;;;;;;;;4999219;28;20058;-60
2023/05/25 13:34:19;;;;;;;3.25;2.00;;;;;;;;;;4997910;28;20052;-62
2023/05/25 13:36:44;;;;;;;2.87;1.90;;;;;;;;;;5006224;28;20030;-60
2023/05/25 13:39:12;;;;;;;2.55;1.85;;;;;;;;;;5005576;28;20033;-60
2023/05/25 13:41:37;;;;;;;4.90;2.25;;;;;;;;;;4999222;28;20030;-62
2023/05/25 13:44:02;;;;;;;2.33;1.80;;;;;;;;;;5021687;28;20054;-60
2023/05/25 13:46:28;;;;;;;2.70;2.17;;;;;;;;;;5000767;28;20048;-59
2023/05/25 13:48:53;;;;;;;2.25;1.73;;;;;;;;;;5003881;28;20038;-60
2023/05/25 13:51:18;;;;;;;2.53;1.73;;;;;;;;;;4997056;28;20392;-59
2023/05/25 13:53:43;;;;;;;2.38;1.85;;;;;;;;;;5001331;28;20173;-60
2023/05/25 13:56:09;;;;;;;2.83;1.90;;;;;;;;;;5005922;28;20052;-61
2023/05/25 13:58:35;;;;;;;2.85;2.05;;;;;;;;;;4998234;28;20026;-60
2023/05/25 14:01:00;;;;;;;2.83;1.90;;;;;;;;;;5004089;28;20073;-59
2023/05/25 14:03:26;;;;;;;3.60;2.35;;;;;;;;;;5005248;28;20143;-61
2023/05/25 14:05:52;;;;;;;4.07;2.22;;;;;;;;;;5004568;28;20101;-59
2023/05/25 14:08:17;;;;;;;3.92;2.00;;;;;;;;;;5002280;28;20068;-58
2023/05/25 14:10:43;;;;;;;2.73;1.90;;;;;;;;;;5004489;28;20504;-59
2023/05/25 14:13:08;;;;;;;2.40;1.77;;;;;;;;;;4993393;28;20281;-61
2023/05/25 14:15:33;;;;;;;2.40;1.60;;;;;;;;;;5006873;28;20033;-60
2023/05/25 14:17:58;;;;;;;3.17;1.67;;;;;;;;;;5003095;28;20118;-60
2023/05/25 14:20:25;;;;;;;2.67;1.97;;;;;;;;;;4992334;28;20080;-61
2023/05/25 14:22:50;;;;;;;2.50;1.70;;;;;;;;;;4997430;28;20045;-61
2023/05/25 14:25:16;;;;;;;2.65;1.90;;;;;;;;;;5006672;28;20044;-61
2023/05/25 14:27:41;;;;;;;2.40;1.90;;;;;;;;;;5006085;28;20042;-60
2023/05/25 14:30:06;;;;;;;3.80;1.90;;;;;;;;;;5007027;28;20507;-61
2023/05/25 14:32:31;;;;;;;3.42;1.90;;;;;;;;;;4997872;28;20464;-61
2023/05/25 14:34:57;;;;;;;2.93;1.80;;;;;;;;;;5015458;28;20521;-61
2023/05/25 14:37:22;;;;;;;4.30;1.73;;;;;;;;;;5006061;28;20343;-60